createdAt,value
2023-05-28T00:01:39.493Z,2.25
2023-05-28T00:04:06.665Z,2.22
2023-05-28T00:06:34.245Z,1.98
2023-05-28T00:09:08.404Z,2.30
2023-05-28T00:11:35.861Z,1.70
2023-05-28T00:14:02.900Z,1.65
2023-05-28T00:16:30.867Z,2.08
2023-05-28T00:18:58.165Z,1.70
2023-05-28T00:21:27.498Z,2.05
2023-05-28T00:23:56.867Z,2.30
2023-05-28T00:26:24.147Z,1.73
2023-05-28T00:28:53.407Z,2.85
2023-05-28T00:31:21.705Z,2.10
2023-05-28T00:33:50.753Z,2.83
2023-05-28T00:36:18.252Z,2.70
2023-05-28T00:38:47.591Z,2.30
2023-05-28T00:41:23.584Z,1.77
2023-05-28T00:43:51.096Z,1.90
2023-05-28T00:46:20.197Z,3.47
2023-05-28T00:48:47.547Z,3.28
2023-05-28T00:51:15.877Z,2.72
2023-05-28T00:53:43.353Z,4.60
2023-05-28T00:56:13.355Z,5.35
2023-05-28T00:58:40.794Z,6.20
2023-05-28T01:01:09.937Z,4.35
2023-05-28T01:03:41.074Z,4.63
2023-05-28T01:06:12.395Z,2.85
2023-05-28T01:08:41.227Z,2.78
2023-05-28T01:11:12.960Z,2.08
2023-05-28T01:13:43.552Z,1.95
2023-05-28T01:16:11.294Z,3.90
2023-05-28T01:18:40.751Z,2.97
2023-05-28T01:21:10.040Z,4.22
2023-05-28T01:23:45.679Z,2.70
2023-05-28T01:26:17.359Z,7.45
2023-05-28T01:28:49.734Z,10.07
2023-05-28T01:31:18.413Z,3.85
2023-05-28T01:33:45.804Z,4.15
2023-05-28T01:36:27.659Z,7.38
2023-05-28T01:39:00.269Z,4.93
2023-05-28T01:41:29.753Z,9.98
2023-05-28T01:43:59.437Z,4.78
2023-05-28T01:46:30.059Z,2.22
2023-05-28T01:48:57.493Z,8.25
2023-05-28T01:51:25.730Z,13.18
2023-05-28T01:53:53.591Z,6.18
2023-05-28T01:56:21.018Z,2.35
2023-05-28T01:58:48.142Z,4.82
2023-05-28T02:01:29.014Z,5.13
2023-05-28T02:03:58.419Z,2.25
2023-05-28T02:06:28.603Z,4.85
2023-05-28T02:08:56.121Z,8.40
2023-05-28T02:11:23.722Z,9.07
2023-05-28T02:13:54.105Z,9.63
2023-05-28T02:16:24.009Z,17.17
2023-05-28T02:18:53.685Z,15.70
2023-05-28T02:21:23.450Z,10.88
2023-05-28T02:23:51.457Z,24.92
2023-05-28T02:26:19.307Z,6.13
2023-05-28T02:28:46.782Z,5.50
2023-05-28T02:31:15.942Z,12.30
2023-05-28T02:33:45.807Z,10.13
2023-05-28T02:36:15.130Z,14.50
2023-05-28T02:38:43.078Z,6.03
2023-05-28T02:41:11.048Z,25.95
2023-05-28T02:43:40.837Z,23.15
2023-05-28T02:46:10.043Z,9.02
2023-05-28T02:48:38.628Z,3.88
2023-05-28T02:51:06.841Z,2.90
2023-05-28T02:53:52.429Z,11.05
2023-05-28T02:56:22.824Z,9.50
2023-05-28T02:58:49.873Z,12.32
2023-05-28T03:01:17.213Z,33.38
2023-05-28T03:03:45.116Z,11.43
2023-05-28T03:06:14.210Z,6.47
2023-05-28T03:08:47.558Z,13.30
2023-05-28T03:11:15.656Z,8.73
2023-05-28T03:13:42.813Z,7.72
2023-05-28T03:16:10.151Z,8.30
2023-05-28T03:18:37.875Z,2.58
2023-05-28T03:21:06.587Z,12.15
2023-05-28T03:23:33.805Z,5.38
2023-05-28T03:26:13.485Z,4.40
2023-05-28T03:28:40.742Z,4.68
2023-05-28T03:31:47.801Z,6.63
2023-05-28T03:34:19.940Z,5.13
2023-05-28T03:36:48.025Z,7.70
2023-05-28T03:39:15.142Z,6.35
2023-05-28T03:41:42.456Z,9.60
2023-05-28T03:44:11.154Z,9.70
2023-05-28T03:46:40.113Z,3.60
2023-05-28T03:49:08.244Z,2.97
2023-05-28T03:51:35.786Z,4.78
2023-05-28T03:54:02.935Z,2.47
2023-05-28T03:56:33.510Z,3.00
2023-05-28T03:59:00.658Z,3.70
2023-05-28T04:01:31.083Z,2.20
2023-05-28T04:03:58.332Z,3.75
2023-05-28T04:06:27.915Z,3.22
2023-05-28T04:08:55.090Z,2.83
2023-05-28T04:11:25.896Z,3.33
2023-05-28T04:13:53.065Z,19.58
2023-05-28T04:16:25.946Z,15.30
2023-05-28T04:18:54.053Z,14.88
2023-05-28T04:21:23.179Z,9.55
2023-05-28T04:23:50.529Z,45.67
2023-05-28T04:26:18.006Z,2.15
2023-05-28T04:28:45.117Z,4.20
2023-05-28T04:31:17.981Z,6.82
2023-05-28T04:33:49.776Z,13.77
2023-05-28T04:36:17.101Z,8.88
2023-05-28T04:38:44.211Z,6.30
2023-05-28T04:41:15.228Z,7.40
2023-05-28T04:43:44.611Z,5.60
2023-05-28T04:46:13.031Z,3.88
2023-05-28T04:48:42.975Z,8.45
2023-05-28T04:51:12.545Z,3.63
2023-05-28T04:53:39.705Z,3.10
2023-05-28T04:56:07.210Z,2.25
2023-05-28T04:58:34.341Z,2.20
2023-05-28T05:01:03.450Z,2.70
2023-05-28T05:03:33.162Z,1.85
2023-05-28T05:06:01.846Z,1.38
2023-05-28T05:08:29.704Z,1.10
2023-05-28T05:11:02.132Z,1.73
2023-05-28T05:13:29.335Z,1.75
2023-05-28T05:15:57.355Z,1.55
2023-05-28T05:18:24.750Z,1.20
2023-05-28T05:20:52.456Z,1.10
2023-05-28T05:23:19.665Z,0.93
2023-05-28T05:25:49.869Z,1.40
2023-05-28T05:28:18.149Z,0.95
2023-05-28T05:30:45.892Z,1.45
2023-05-28T05:33:12.997Z,1.20
2023-05-28T05:36:03.022Z,0.80
2023-05-28T05:38:59.406Z,2.55
2023-05-28T05:42:02.346Z,1.50
2023-05-28T05:44:34.498Z,1.52
2023-05-28T05:47:01.966Z,1.50
2023-05-28T05:49:29.092Z,1.55
2023-05-28T05:51:56.471Z,1.50
2023-05-28T05:54:23.615Z,1.10
2023-05-28T05:56:53.805Z,2.08
2023-05-28T05:59:21.639Z,1.90
2023-05-28T06:01:49.340Z,1.73
2023-05-28T06:04:16.485Z,1.65
2023-05-28T06:06:55.705Z,1.55
2023-05-28T06:09:41.512Z,1.20
2023-05-28T06:12:15.501Z,1.95
2023-05-28T06:14:46.054Z,1.10
2023-05-28T06:17:13.985Z,1.52
2023-05-28T06:19:44.567Z,1.35
2023-05-28T06:22:13.991Z,1.55
2023-05-28T06:24:43.108Z,2.78
2023-05-28T06:27:15.173Z,1.27
2023-05-28T06:29:42.649Z,1.13
2023-05-28T06:32:10.016Z,1.30
2023-05-28T06:34:38.400Z,1.23
2023-05-28T06:37:06.780Z,1.00
2023-05-28T06:39:34.168Z,1.88
2023-05-28T06:42:03.843Z,0.98
2023-05-28T06:44:48.552Z,1.00
2023-05-28T06:47:17.509Z,1.58
2023-05-28T06:49:45.034Z,0.93
2023-05-28T06:52:12.660Z,2.17
2023-05-28T06:54:42.043Z,2.53
2023-05-28T06:57:10.998Z,5.32
2023-05-28T06:59:44.304Z,1.90
2023-05-28T07:02:34.822Z,1.85
2023-05-28T07:05:31.603Z,1.60
2023-05-28T07:08:02.951Z,2.35
2023-05-28T07:10:30.002Z,1.70
2023-05-28T07:12:57.752Z,1.10
2023-05-28T07:15:24.796Z,1.00
2023-05-28T07:17:52.801Z,0.70
2023-05-28T07:20:19.983Z,0.88
2023-05-28T07:23:08.623Z,1.10
2023-05-28T07:25:35.960Z,1.02
2023-05-28T07:28:03.263Z,4.80
2023-05-28T07:30:34.477Z,0.93
2023-05-28T07:33:05.952Z,4.47
2023-05-28T07:35:37.115Z,2.47
2023-05-28T07:38:04.601Z,1.13
2023-05-28T07:40:31.598Z,2.38
2023-05-28T07:43:09.215Z,1.70
2023-05-28T07:45:36.348Z,1.15
2023-05-28T07:48:04.981Z,0.90
2023-05-28T07:50:47.293Z,1.30
2023-05-28T07:53:34.677Z,2.33
2023-05-28T07:56:03.994Z,1.10
2023-05-28T07:58:33.981Z,1.20
2023-05-28T08:01:01.494Z,1.30
2023-05-28T08:03:29.938Z,1.08
2023-05-28T08:06:02.183Z,2.33
2023-05-28T08:08:30.505Z,3.42
2023-05-28T08:10:57.941Z,1.98
2023-05-28T08:13:25.641Z,1.10
2023-05-28T08:15:55.383Z,0.80
2023-05-28T08:18:29.983Z,1.00
2023-05-28T08:20:57.880Z,0.95
2023-05-28T08:23:25.903Z,1.25
2023-05-28T08:25:54.525Z,2.30
2023-05-28T08:31:00.180Z,2.10
2023-05-28T08:33:41.999Z,1.30
2023-05-28T08:36:09.210Z,1.10
2023-05-28T08:38:37.275Z,0.98
2023-05-28T08:41:06.769Z,1.00
2023-05-28T08:43:34.411Z,0.88
2023-05-28T08:46:01.885Z,1.00
2023-05-28T08:48:39.925Z,1.13
2023-05-28T08:51:10.681Z,0.80
2023-05-28T08:53:46.770Z,0.90
2023-05-28T08:56:16.571Z,1.00
2023-05-28T08:58:46.436Z,1.00
2023-05-28T09:01:14.039Z,1.33
2023-05-28T09:03:49.449Z,0.93
2023-05-28T09:06:32.168Z,0.90
2023-05-28T09:09:00.941Z,1.00
2023-05-28T09:11:45.829Z,0.95
2023-05-28T09:14:14.587Z,0.82
2023-05-28T09:16:47.044Z,0.90
2023-05-28T09:19:20.252Z,1.00
2023-05-28T09:21:59.018Z,1.17
2023-05-28T09:24:35.886Z,1.98
2023-05-28T09:27:25.047Z,1.52
2023-05-28T09:29:55.078Z,1.52
2023-05-28T09:32:22.422Z,1.58
2023-05-28T09:34:51.233Z,0.80
2023-05-28T09:37:18.970Z,1.75
2023-05-28T09:39:46.731Z,0.90
2023-05-28T09:42:21.289Z,0.80
2023-05-28T09:44:49.688Z,2.80
2023-05-28T09:47:18.731Z,1.67
2023-05-28T09:49:47.650Z,3.10
2023-05-28T09:52:22.594Z,0.90
2023-05-28T09:54:56.445Z,1.60
2023-05-28T09:58:06.091Z,2.63
2023-05-28T10:00:48.429Z,1.05
2023-05-28T10:03:26.624Z,5.55
2023-05-28T10:06:01.254Z,1.10
2023-05-28T10:08:29.169Z,3.58
2023-05-28T10:10:56.931Z,1.52
2023-05-28T10:13:24.392Z,1.10
2023-05-28T10:15:53.201Z,12.07
2023-05-28T10:18:24.268Z,1.38
2023-05-28T10:20:52.502Z,1.52
2023-05-28T10:23:21.961Z,1.40
2023-05-28T10:25:53.039Z,1.23
2023-05-28T10:28:22.364Z,1.33
2023-05-28T10:31:03.503Z,1.00
2023-05-28T10:33:31.052Z,1.23
2023-05-28T10:36:01.905Z,1.00
2023-05-28T10:38:31.258Z,2.10
2023-05-28T10:41:03.450Z,2.80
2023-05-28T10:43:39.730Z,3.05
2023-05-28T10:46:20.148Z,3.55
2023-05-28T10:49:06.111Z,1.50
2023-05-28T10:51:56.078Z,2.55
2023-05-28T10:54:30.370Z,1.10
2023-05-28T10:59:47.306Z,1.02
2023-05-28T11:02:27.419Z,1.20
2023-05-28T11:05:02.447Z,1.55
2023-05-28T11:07:37.008Z,1.20
2023-05-28T11:10:07.008Z,13.32
2023-05-28T11:12:38.090Z,1.10
2023-05-28T11:15:14.181Z,1.40
2023-05-28T11:17:43.823Z,1.70
2023-05-28T11:20:21.053Z,1.00
2023-05-28T11:22:49.634Z,1.27
2023-05-28T11:25:16.815Z,1.30
2023-05-28T11:27:46.802Z,1.80
2023-05-28T11:30:19.102Z,1.02
2023-05-28T11:32:48.979Z,2.20
2023-05-28T11:35:17.363Z,1.40
2023-05-28T11:37:46.766Z,1.00
2023-05-28T11:40:15.862Z,1.30
2023-05-28T11:42:44.668Z,9.38
2023-05-28T11:45:13.289Z,1.52
2023-05-28T11:47:43.891Z,1.58
2023-05-28T11:50:20.414Z,2.75
2023-05-28T11:52:47.725Z,1.00
2023-05-28T11:55:17.006Z,1.33
2023-05-28T11:57:55.172Z,1.27
2023-05-28T12:00:34.002Z,1.13
2023-05-28T12:03:01.660Z,1.20
2023-05-28T12:05:37.358Z,1.45
2023-05-28T12:08:07.976Z,1.17
2023-05-28T12:10:35.096Z,1.20
2023-05-28T12:13:07.157Z,1.50
2023-05-28T12:15:34.496Z,1.02
2023-05-28T12:18:03.985Z,1.80
2023-05-28T12:20:39.865Z,1.20
2023-05-28T12:23:14.288Z,1.92
2023-05-28T12:25:44.593Z,1.00
2023-05-28T12:28:13.128Z,1.30
2023-05-28T12:30:41.918Z,1.10
2023-05-28T12:33:11.014Z,1.45
2023-05-28T12:35:38.611Z,2.38
2023-05-28T12:38:06.109Z,1.35
2023-05-28T12:40:33.176Z,1.10
2023-05-28T12:43:00.601Z,2.05
2023-05-28T12:45:31.266Z,1.58
2023-05-28T12:47:58.593Z,1.67
2023-05-28T12:50:25.777Z,1.20
2023-05-28T12:52:53.666Z,1.10
2023-05-28T12:55:24.452Z,1.25
2023-05-28T12:57:52.932Z,1.88
2023-05-28T13:00:20.247Z,1.20
2023-05-28T13:02:48.611Z,1.40
2023-05-28T13:05:16.594Z,1.38
2023-05-28T13:07:44.902Z,3.30
2023-05-28T13:10:15.447Z,1.55
2023-05-28T13:12:43.023Z,0.98
2023-05-28T13:15:10.984Z,1.80
2023-05-28T13:17:38.353Z,1.48
2023-05-28T13:20:08.818Z,1.40
2023-05-28T13:22:37.994Z,1.50
2023-05-28T13:25:05.661Z,1.30
2023-05-28T13:27:33.143Z,1.30
2023-05-28T13:30:00.697Z,1.40
2023-05-28T13:32:28.152Z,1.10
2023-05-28T13:34:55.383Z,1.60
2023-05-28T13:37:27.344Z,1.10
2023-05-28T13:39:54.795Z,1.55
2023-05-28T13:42:22.862Z,1.45
2023-05-28T13:44:50.144Z,2.72
2023-05-28T13:47:18.656Z,2.00
2023-05-28T13:49:46.207Z,2.30
2023-05-28T13:52:13.694Z,1.30
2023-05-28T13:54:42.510Z,1.48
2023-05-28T13:57:11.282Z,1.20
2023-05-28T13:59:38.443Z,1.23
2023-05-28T14:02:05.921Z,1.20
2023-05-28T14:04:35.905Z,1.30
2023-05-28T14:07:03.568Z,1.50
2023-05-28T14:09:30.743Z,1.83
2023-05-28T14:14:28.696Z,1.80
2023-05-28T14:16:56.310Z,1.92
2023-05-28T14:19:23.599Z,1.52
2023-05-28T14:21:51.050Z,2.05
2023-05-28T14:24:19.097Z,1.48
2023-05-28T14:26:46.418Z,1.20
2023-05-28T14:29:16.800Z,1.45
2023-05-28T14:31:44.173Z,1.50
2023-05-28T14:34:11.218Z,1.20
2023-05-28T14:36:41.172Z,1.98
2023-05-28T14:39:08.850Z,1.83
2023-05-28T14:41:36.224Z,1.30
2023-05-28T14:44:03.600Z,1.70
2023-05-28T14:46:31.053Z,1.20
2023-05-28T14:48:58.978Z,4.43
2023-05-28T14:51:26.344Z,8.27
2023-05-28T14:53:57.034Z,2.03
2023-05-28T14:56:24.587Z,2.05
2023-05-28T14:58:51.812Z,1.75
2023-05-28T15:01:21.947Z,1.63
2023-05-28T15:03:49.276Z,1.88
2023-05-28T15:06:16.660Z,1.20
2023-05-28T15:08:44.193Z,1.55
2023-05-28T15:11:15.478Z,2.00
2023-05-28T15:13:48.476Z,1.90
2023-05-28T15:16:16.435Z,2.85
2023-05-28T15:18:43.630Z,2.33
2023-05-28T15:21:11.278Z,1.50
2023-05-28T15:23:39.259Z,1.60
2023-05-28T15:26:07.044Z,1.40
2023-05-28T15:28:34.266Z,2.80
2023-05-28T15:31:01.994Z,3.25
2023-05-28T15:33:29.721Z,3.28
2023-05-28T15:35:57.400Z,3.92
2023-05-28T15:38:26.044Z,1.67
2023-05-28T15:40:53.858Z,1.58
2023-05-28T15:43:21.162Z,1.63
2023-05-28T15:45:48.606Z,6.47
2023-05-28T15:48:16.006Z,2.67
2023-05-28T15:50:45.753Z,2.63
2023-05-28T15:53:13.821Z,4.47
2023-05-28T15:55:41.412Z,2.70
2023-05-28T15:58:08.611Z,2.00
2023-05-28T16:00:37.316Z,1.90
2023-05-28T16:03:06.241Z,1.80
2023-05-28T16:05:36.617Z,2.10
2023-05-28T16:08:06.380Z,2.15
2023-05-28T16:10:34.420Z,1.77
2023-05-28T16:13:06.222Z,2.00
2023-05-28T16:15:35.964Z,2.22
2023-05-28T16:18:05.123Z,1.90
2023-05-28T16:20:33.827Z,2.25
2023-05-28T16:23:02.026Z,3.55
2023-05-28T16:25:30.152Z,2.55
2023-05-28T16:27:57.370Z,2.60
2023-05-28T16:30:25.134Z,2.00
2023-05-28T16:32:52.924Z,4.47
2023-05-28T16:35:23.095Z,28.92
2023-05-28T16:37:50.723Z,4.85
2023-05-28T16:40:18.719Z,3.90
2023-05-28T16:42:48.783Z,4.18
2023-05-28T16:45:16.920Z,2.88
2023-05-28T16:47:44.738Z,2.47
2023-05-28T16:50:15.414Z,1.95
2023-05-28T16:52:42.816Z,4.50
2023-05-28T16:55:12.984Z,4.00
2023-05-28T16:57:40.765Z,4.47
2023-05-28T17:00:11.759Z,4.00
2023-05-28T17:02:43.436Z,2.85
2023-05-28T17:05:11.732Z,3.47
2023-05-28T17:07:39.861Z,4.75
2023-05-28T17:10:08.392Z,8.10
2023-05-28T17:12:36.817Z,4.40
2023-05-28T17:15:10.856Z,5.07
2023-05-28T17:17:38.649Z,5.37
2023-05-28T17:20:10.037Z,4.55
2023-05-28T17:22:41.389Z,7.63
2023-05-28T17:25:09.742Z,7.40
2023-05-28T17:27:37.046Z,7.32
2023-05-28T17:30:05.250Z,6.70
2023-05-28T17:32:36.419Z,5.85
2023-05-28T17:35:03.849Z,7.10
2023-05-28T17:37:31.427Z,15.57
2023-05-28T17:39:58.995Z,4.32
2023-05-28T17:42:28.743Z,5.80
2023-05-28T17:44:56.435Z,7.30
2023-05-28T17:47:26.697Z,3.97
2023-05-28T17:49:54.095Z,3.42
2023-05-28T17:52:21.451Z,4.07
2023-05-28T17:54:51.401Z,3.40
2023-05-28T17:57:21.389Z,4.03
2023-05-28T17:59:49.270Z,4.32
2023-05-28T18:02:16.448Z,3.38
2023-05-28T18:04:47.833Z,2.85
2023-05-28T18:07:15.634Z,2.63
2023-05-28T18:09:43.086Z,2.63
2023-05-28T18:12:10.377Z,2.78
2023-05-28T18:14:37.801Z,3.25
2023-05-28T18:17:05.212Z,3.40
2023-05-28T18:19:32.693Z,2.65
2023-05-28T18:22:02.908Z,4.95
2023-05-28T18:24:31.211Z,3.92
2023-05-28T18:27:01.175Z,3.17
2023-05-28T18:29:28.539Z,3.60
2023-05-28T18:31:56.289Z,3.65
2023-05-28T18:34:26.003Z,4.82
2023-05-28T18:36:53.092Z,4.72
2023-05-28T18:39:21.774Z,6.65
2023-05-28T18:41:49.149Z,13.18
2023-05-28T18:44:17.599Z,18.85
2023-05-28T18:46:45.073Z,17.25
2023-05-28T18:49:13.356Z,13.18
2023-05-28T18:51:41.044Z,13.32
2023-05-28T18:54:08.654Z,12.30
2023-05-28T18:56:36.564Z,15.55
2023-05-28T18:59:04.292Z,13.70
2023-05-28T19:01:34.270Z,12.82
2023-05-28T19:04:04.995Z,9.82
2023-05-28T19:06:33.391Z,14.63
2023-05-28T19:09:01.067Z,13.13
2023-05-28T19:11:28.384Z,13.18
2023-05-28T19:13:56.718Z,12.05
2023-05-28T19:16:26.263Z,13.10
2023-05-28T19:18:55.113Z,28.35
2023-05-28T19:21:22.967Z,25.52
2023-05-28T19:23:50.462Z,19.13
2023-05-28T19:26:20.294Z,22.17
2023-05-28T19:28:47.930Z,47.67
2023-05-28T19:31:16.440Z,32.05
2023-05-28T19:33:44.368Z,25.15
2023-05-28T19:36:15.250Z,27.02
2023-05-28T19:38:46.341Z,29.75
2023-05-28T19:41:14.633Z,39.47
2023-05-28T19:43:42.143Z,43.42
2023-05-28T19:46:10.322Z,31.30
2023-05-28T19:48:37.656Z,18.75
2023-05-28T19:51:06.244Z,18.60
2023-05-28T19:53:37.914Z,29.20
2023-05-28T19:56:07.172Z,38.13
2023-05-28T19:58:34.723Z,59.00
2023-05-28T20:01:26.707Z,75.13
2023-05-28T20:03:55.003Z,75.50
2023-05-28T20:06:23.209Z,54.08
2023-05-28T20:08:51.643Z,53.00
2023-05-28T20:11:19.020Z,49.33
2023-05-28T20:13:49.261Z,26.40
2023-05-28T20:16:18.218Z,25.73
2023-05-28T20:18:45.632Z,23.00
2023-05-28T20:21:14.056Z,29.50
2023-05-28T20:23:43.666Z,24.77
2023-05-28T20:26:10.685Z,23.48
2023-05-28T20:28:38.730Z,22.65
2023-05-28T20:31:07.364Z,20.05
2023-05-28T20:33:34.761Z,25.27
2023-05-28T20:36:01.871Z,24.38
2023-05-28T20:38:33.053Z,21.50
2023-05-28T20:41:02.714Z,23.42
2023-05-28T20:43:30.811Z,28.98
2023-05-28T20:46:01.049Z,24.33
2023-05-28T20:48:29.456Z,23.40
2023-05-28T20:50:56.657Z,19.55
2023-05-28T20:53:25.774Z,15.68
2023-05-28T20:55:52.756Z,19.35
2023-05-28T20:58:32.822Z,37.60
2023-05-28T21:01:01.752Z,32.30
2023-05-28T21:03:29.215Z,25.80
2023-05-28T21:05:56.442Z,31.42
2023-05-28T21:08:24.040Z,38.55
2023-05-28T21:10:51.018Z,33.60
2023-05-28T21:13:18.325Z,29.65
2023-05-28T21:15:45.580Z,28.20
2023-05-28T21:18:13.085Z,24.23
2023-05-28T21:20:40.207Z,23.30
2023-05-28T21:23:11.935Z,24.73
2023-05-28T21:25:38.916Z,27.83
2023-05-28T21:28:07.297Z,36.40
2023-05-28T21:30:34.337Z,63.83
2023-05-28T21:33:01.655Z,34.65
2023-05-28T21:35:28.718Z,19.13
2023-05-28T21:37:55.958Z,15.23
2023-05-28T21:40:22.979Z,12.80
2023-05-28T21:42:50.568Z,12.10
2023-05-28T21:45:18.000Z,10.80
2023-05-28T21:47:45.400Z,14.15
2023-05-28T21:50:12.670Z,27.27
2023-05-28T21:52:40.842Z,21.73
2023-05-28T21:55:08.287Z,22.10
2023-05-28T21:57:36.519Z,15.82
2023-05-28T22:00:07.212Z,12.48
2023-05-28T22:02:43.922Z,8.82
2023-05-28T22:05:14.746Z,10.25
2023-05-28T22:07:46.014Z,11.68
2023-05-28T22:10:16.197Z,6.93
2023-05-28T22:12:43.954Z,6.78
2023-05-28T22:15:11.447Z,6.85
2023-05-28T22:17:48.684Z,8.20
2023-05-28T22:20:16.442Z,6.80
2023-05-28T22:22:43.746Z,8.70
2023-05-28T22:25:12.062Z,8.35
2023-05-28T22:27:40.566Z,8.38
2023-05-28T22:30:08.057Z,10.30
2023-05-28T22:32:37.365Z,10.90
2023-05-28T22:35:07.660Z,11.85
2023-05-28T22:37:35.030Z,11.45
2023-05-28T22:40:02.049Z,9.10
2023-05-28T22:42:30.664Z,9.10
2023-05-28T22:44:57.605Z,8.13
2023-05-28T22:47:27.805Z,8.50
2023-05-28T22:49:57.102Z,9.25
2023-05-28T22:52:25.843Z,10.63
2023-05-28T22:54:52.921Z,10.52
2023-05-28T22:57:22.330Z,11.05
2023-05-28T22:59:49.526Z,10.77
2023-05-28T23:02:16.992Z,9.82
2023-05-28T23:04:48.163Z,10.63
2023-05-28T23:07:15.621Z,8.80
2023-05-28T23:09:42.631Z,11.75
2023-05-28T23:12:13.411Z,10.60
2023-05-28T23:14:40.634Z,10.63
2023-05-28T23:17:07.957Z,20.58
2023-05-28T23:19:37.786Z,25.95
2023-05-28T23:22:07.859Z,20.98
2023-05-28T23:24:34.916Z,23.77
2023-05-28T23:27:05.428Z,19.15
2023-05-28T23:29:32.446Z,11.95
2023-05-28T23:32:00.339Z,9.75
2023-05-28T23:34:28.457Z,8.70
2023-05-28T23:36:56.935Z,5.72
2023-05-28T23:39:25.737Z,5.72
2023-05-28T23:41:53.766Z,4.15
2023-05-28T23:44:20.850Z,4.95
2023-05-28T23:46:50.441Z,5.78
2023-05-28T23:49:18.536Z,4.95
2023-05-28T23:51:45.907Z,4.82
2023-05-28T23:54:12.919Z,4.22
2023-05-28T23:56:42.330Z,5.35
2023-05-28T23:59:09.307Z,6.63
